This is the latest recevied weather packets stored in our database for station/object IZ1CYF-13. If no packets are shown the sender has not sent any weather packets the latest 10 day(s).
| Time | Temp. | Humidity | Pressure | Rain* | Wind** | Luminosity | Snow |
|---|---|---|---|---|---|---|---|
| 1777445346 | 20.56° C | 50% | 1017.8 hPa | - | - | - | - |
| 1777443546 | 21.11° C | 46% | 1017.6 hPa | - | - | - | - |
| 1777442346 | 18.89° C | 53% | 1018 hPa | - | - | - | - |
| 1777434562 | 23.33° C | 40% | 1016.4 hPa | - | - | - | - |
| 1777433347 | 21.11° C | 45% | 1016.9 hPa | - | - | - | - |
| 1777432746 | 22.22° C | 44% | 1016.7 hPa | - | - | - | - |
| 1777429748 | 23.33° C | 45% | 1016.5 hPa | - | - | - | - |
| 1777427348 | 22.78° C | 47% | 1016.3 hPa | - | - | - | - |
| 1777423747 | 22.78° C | 48% | 1016.4 hPa | - | - | - | - |
| 1777415947 | 22.78° C | 47% | 1016.3 hPa | - | - | - | - |
| 1777414747 | 23.33° C | 44% | 1015.9 hPa | - | - | - | - |
| 1777410547 | 22.78° C | 44% | 1015.9 hPa | - | - | - | - |
| 1777409947 | 21.11° C | 47% | 1016.2 hPa | - | - | - | - |
| 1777407547 | 24.44° C | 41% | 1015.4 hPa | - | - | - | - |
| 1777403947 | 22.78° C | 44% | 1015.2 hPa | - | - | - | - |
| 1777402747 | 22.22° C | 46% | 1015.2 hPa | - | - | - | - |
| 1777397948 | 22.78° C | 42% | 1014.8 hPa | - | - | - | - |
| 1777396748 | 22.78° C | 43% | 1014.8 hPa | - | - | - | - |
| 1777394948 | 25° C | 36% | 1014.3 hPa | - | - | - | - |
| 1777393763 | 24.44° C | 37% | 1014.3 hPa | - | - | - | - |
| 1777390148 | 25° C | 38% | 1014.5 hPa | - | - | - | - |
| 1777388348 | 22.78° C | 43% | 1015.1 hPa | - | - | - | - |
| 1777387148 | 22.22° C | 48% | 1015.5 hPa | - | - | - | - |
| 1777385963 | 21.67° C | 50% | 1015.7 hPa | - | - | - | - |
| 1777382948 | 21.67° C | 47% | 1016.2 hPa | - | - | - | - |
* Rain since midnight (hover to see other rain measurements)
** Current wind speed in m/s (hover to see current wind gust speed)